Time;durP1;ratioP1;P1;durP2;ratioP2;P2;SDS_P1;SDS_P2;PMS_P1;PMS_P2;Temp;Humidity;BMP_temperature;BMP_pressure;BME280_temperature;BME280_humidity;BME280_pressure;Samples;Min_cycle;Max_cycle;Signal;HPM_P1;HPM_P2
2023/08/16 00:00:32;;;;;;;3.25;1.30;;;15.30;99.90;;;14.79;100.00;101510.34;4153929;28;20033;-73
2023/08/16 00:02:33;;;;;;;4.30;1.65;;;15.30;99.90;;;14.79;100.00;101507.69;4155019;28;20025;-73
2023/08/16 00:04:34;;;;;;;4.28;1.02;;;15.30;99.90;;;14.77;100.00;101494.59;4137580;28;20033;-73
2023/08/16 00:06:35;;;;;;;3.00;1.08;;;15.30;99.90;;;14.77;100.00;101499.91;4153626;28;20029;-73
2023/08/16 00:08:36;;;;;;;4.70;1.42;;;15.30;99.90;;;14.78;100.00;101503.41;4148422;28;20037;-73
2023/08/16 00:10:37;;;;;;;2.80;1.15;;;15.20;99.90;;;14.70;100.00;101498.06;4154942;28;20022;-73
2023/08/16 00:12:38;;;;;;;2.30;1.30;;;15.30;99.90;;;14.68;100.00;101506.19;4153637;28;20041;-73
2023/08/16 00:14:40;;;;;;;4.70;1.23;;;15.30;99.90;;;14.64;100.00;101496.88;4153815;28;20029;-73
2023/08/16 00:16:41;;;;;;;3.47;1.17;;;15.20;99.90;;;14.61;100.00;101496.38;4153669;28;20033;-73
2023/08/16 00:18:41;;;;;;;2.80;0.98;;;15.20;99.90;;;14.58;100.00;101494.03;4154787;28;20025;-72
2023/08/16 00:20:42;;;;;;;2.95;1.45;;;15.10;99.90;;;14.54;100.00;101495.38;4153584;28;20041;-72
2023/08/16 00:22:43;;;;;;;2.03;1.10;;;15.10;99.90;;;14.54;100.00;101498.03;4153387;28;20026;-73
2023/08/16 00:24:44;;;;;;;3.88;1.98;;;15.10;99.90;;;14.50;100.00;101488.72;4154803;28;20029;-72
2023/08/16 00:26:45;;;;;;;4.00;1.55;;;15.10;99.90;;;14.47;100.00;101491.72;4154603;28;20025;-73
2023/08/16 00:28:48;;;;;;;1.60;1.30;;;15.00;99.90;;;14.44;100.00;101489.38;4153068;28;20030;-73
2023/08/16 00:30:55;;;;;;;4.47;1.73;;;15.00;99.90;;;14.36;100.00;101477.78;4154504;28;20033;-73
2023/08/16 00:32:56;;;;;;;3.50;1.58;;;15.00;99.90;;;14.38;100.00;101489.06;4153531;28;20105;-73
2023/08/16 00:34:57;;;;;;;4.50;1.65;;;15.00;99.90;;;14.38;100.00;101488.22;4127340;28;20070;-73
2023/08/16 00:36:58;;;;;;;2.28;1.50;;;15.00;99.90;;;14.33;100.00;101482.56;4153897;28;20052;-73
2023/08/16 00:38:59;;;;;;;3.45;1.83;;;14.90;99.90;;;14.31;100.00;101480.03;4153303;28;20026;-72
2023/08/16 00:41:00;;;;;;;4.85;1.85;;;14.90;99.90;;;14.30;100.00;101483.69;4154393;28;20125;-72
2023/08/16 00:43:00;;;;;;;2.55;1.70;;;14.90;99.90;;;14.23;100.00;101473.88;4154438;28;20452;-73
2023/08/16 00:45:02;;;;;;;3.22;1.70;;;14.80;99.90;;;14.19;100.00;101470.72;4154355;28;20033;-72
2023/08/16 00:47:03;;;;;;;4.38;1.60;;;14.80;99.90;;;14.15;100.00;101473.88;4153105;28;20022;-73
2023/08/16 00:49:04;;;;;;;7.63;2.00;;;14.80;99.90;;;14.13;100.00;101474.00;4169413;28;20108;-73
2023/08/16 00:51:06;;;;;;;5.53;1.88;;;14.80;99.90;;;14.14;100.00;101469.53;4152950;28;20030;-72
2023/08/16 00:53:08;;;;;;;2.85;1.60;;;14.70;99.90;;;14.08;100.00;101481.63;4136537;28;20096;-73
2023/08/16 00:55:09;;;;;;;3.45;1.70;;;14.70;99.90;;;14.11;100.00;101488.44;4153052;28;20018;-73
2023/08/16 00:57:10;;;;;;;4.03;2.13;;;14.70;99.90;;;14.04;100.00;101476.78;4154130;28;20029;-73
2023/08/16 00:59:12;;;;;;;4.88;1.85;;;14.60;99.90;;;14.02;100.00;101470.81;4152888;28;20093;-72
2023/08/16 01:01:13;;;;;;;3.33;1.58;;;14.60;99.90;;;13.98;100.00;101474.81;4152599;28;20038;-73
2023/08/16 01:03:13;;;;;;;3.47;1.63;;;14.50;99.90;;;13.98;100.00;101480.09;4152933;28;20485;-72
2023/08/16 01:05:16;;;;;;;2.67;1.45;;;14.50;99.90;;;13.94;100.00;101479.59;4154102;28;20030;-72
2023/08/16 01:07:17;;;;;;;3.80;1.85;;;14.50;99.90;;;13.91;100.00;101479.91;4153791;28;20028;-73
2023/08/16 01:09:18;;;;;;;3.10;1.88;;;14.50;99.90;;;13.83;100.00;101470.09;4136542;28;20022;-73
2023/08/16 01:11:42;;;;;;;4.55;2.03;;;14.50;99.90;;;13.85;100.00;101472.59;4152711;28;20025;-72
2023/08/16 01:14:27;;;;;;;2.83;1.52;;;14.40;99.90;;;13.81;100.00;101472.06;4147884;28;20044;-72
2023/08/16 01:16:30;;;;;;;5.53;2.28;;;14.40;99.90;;;13.75;100.00;101466.56;4139088;28;20034;-73
2023/08/16 01:18:31;;;;;;;5.50;2.40;;;14.40;99.90;;;13.81;100.00;101469.41;4152667;28;20038;-73
2023/08/16 01:20:35;;;;;;;3.42;2.05;;;14.40;99.90;;;13.82;100.00;101470.25;4152495;28;20037;-73
2023/08/16 01:23:05;;;;;;;5.35;2.50;;;14.40;99.90;;;13.79;100.00;101482.03;4152488;28;20034;-73
2023/08/16 01:25:13;;;;;;;4.20;2.10;;;14.40;99.90;;;13.79;100.00;101486.50;4153690;28;20026;-73
2023/08/16 01:27:18;;;;;;;5.40;2.47;;;14.30;99.90;;;13.78;100.00;101482.16;4152543;28;20029;-74
2023/08/16 01:29:20;;;;;;;4.93;2.58;;;14.40;99.90;;;13.79;100.00;101481.19;4168602;28;20025;-73
2023/08/16 01:31:21;;;;;;;3.78;2.83;;;14.30;99.90;;;13.78;100.00;101484.81;4136407;28;20069;-73
2023/08/16 01:33:22;;;;;;;5.82;2.83;;;14.40;99.90;;;13.78;100.00;101496.25;4149591;28;20089;-73
2023/08/16 01:35:23;;;;;;;4.72;2.17;;;14.30;99.90;;;13.75;100.00;101485.13;4152880;28;20025;-73
2023/08/16 01:37:24;;;;;;;3.65;2.17;;;14.40;99.90;;;13.78;100.00;101484.81;4151901;28;20437;-73
2023/08/16 01:39:25;;;;;;;7.13;2.78;;;14.30;99.90;;;13.74;100.00;101475.50;4168699;28;20033;-73
2023/08/16 01:41:38;;;;;;;4.90;2.63;;;14.30;99.90;;;13.80;100.00;101482.81;4168657;28;20085;-73
2023/08/16 01:43:43;;;;;;;3.95;1.95;;;14.40;99.90;;;13.82;100.00;101480.88;4153428;28;20036;-72
2023/08/16 01:45:46;;;;;;;5.15;3.10;;;14.40;99.90;;;13.83;100.00;101472.75;4152372;28;20022;-73
2023/08/16 01:47:48;;;;;;;5.05;2.60;;;14.40;99.90;;;13.89;100.00;101486.38;4151681;28;20056;-72
2023/08/16 01:49:50;;;;;;;4.20;2.60;;;14.40;99.90;;;13.85;100.00;101476.09;4152044;28;20026;-73
2023/08/16 01:51:51;;;;;;;6.28;2.78;;;14.50;99.90;;;13.93;100.00;101482.38;4151993;28;20030;-73
2023/08/16 01:53:53;;;;;;;5.93;2.42;;;14.50;99.90;;;13.92;100.00;101486.06;4152187;28;20026;-72
2023/08/16 01:55:54;;;;;;;3.17;2.15;;;14.50;99.90;;;13.96;100.00;101501.47;4152054;28;20030;-72
2023/08/16 01:57:55;;;;;;;4.18;2.47;;;14.50;99.90;;;13.91;100.00;101479.91;4153312;28;20029;-72
2023/08/16 01:59:56;;;;;;;5.90;2.53;;;14.50;99.90;;;13.95;100.00;101475.13;4151989;28;20030;-73
2023/08/16 02:01:59;;;;;;;7.65;3.20;;;14.50;99.90;;;13.98;100.00;101482.75;4152067;28;20033;-72
2023/08/16 02:04:00;;;;;;;3.75;2.60;;;14.50;99.90;;;13.98;100.00;101478.25;4153115;28;20025;-73
2023/08/16 02:06:01;;;;;;;5.78;2.63;;;14.60;99.90;;;14.00;100.00;101478.13;4151620;28;20026;-73
2023/08/16 02:08:02;;;;;;;4.68;2.38;;;14.60;99.90;;;13.92;100.00;101478.91;4153133;28;20029;-72
2023/08/16 02:10:03;;;;;;;4.22;2.90;;;14.60;99.90;;;14.01;100.00;101493.06;4153102;28;20517;-73
2023/08/16 02:12:05;;;;;;;7.50;2.97;;;14.60;99.90;;;14.00;100.00;101496.69;4153021;28;20022;-73
2023/08/16 02:14:05;;;;;;;6.22;2.97;;;14.60;99.90;;;14.01;100.00;101496.50;4151837;28;20026;-72
2023/08/16 02:16:06;;;;;;;10.23;3.63;;;14.60;99.90;;;13.94;100.00;101484.06;4152979;28;20517;-72
2023/08/16 02:18:10;;;;;;;4.80;2.88;;;14.50;99.90;;;13.97;100.00;101487.22;4151656;28;20080;-73
2023/08/16 02:20:12;;;;;;;3.45;2.40;;;14.50;99.90;;;13.95;100.00;101481.22;4123685;28;20035;-73
2023/08/16 02:22:13;;;;;;;5.82;2.97;;;14.50;99.90;;;13.95;100.00;101494.50;4150387;28;20113;-73
2023/08/16 02:24:14;;;;;;;3.80;2.58;;;14.50;99.90;;;13.92;100.00;101492.16;4151731;28;20034;-73
2023/08/16 02:26:15;;;;;;;5.65;2.70;;;14.50;99.90;;;13.92;100.00;101489.50;4153024;28;20025;-73
2023/08/16 02:28:16;;;;;;;9.30;3.63;;;14.50;99.90;;;13.88;100.00;101493.50;4152774;28;20026;-73
2023/08/16 02:30:17;;;;;;;6.63;3.38;;;14.50;99.90;;;13.91;100.00;101495.00;4152538;28;20041;-72
2023/08/16 02:32:18;;;;;;;4.63;2.95;;;14.50;99.90;;;13.87;100.00;101499.78;4151478;28;20100;-73
2023/08/16 02:34:19;;;;;;;5.82;3.38;;;14.50;99.90;;;13.87;100.00;101494.47;4167873;28;20026;-72
2023/08/16 02:36:20;;;;;;;4.18;2.17;;;14.40;99.90;;;13.81;100.00;101473.88;4150468;28;20057;-72
2023/08/16 02:38:21;;;;;;;4.88;2.88;;;14.40;99.90;;;13.84;100.00;101495.63;4152487;28;20034;-72
2023/08/16 02:40:21;;;;;;;5.20;2.85;;;14.40;99.90;;;13.86;100.00;101500.75;4151421;28;20406;-72
2023/08/16 02:42:23;;;;;;;4.38;2.50;;;14.40;99.90;;;13.79;100.00;101482.03;4152807;28;20018;-73
2023/08/16 02:44:23;;;;;;;6.30;3.13;;;14.40;99.90;;;13.83;100.00;101487.81;4151415;28;20037;-72
2023/08/16 02:46:24;;;;;;;4.93;2.30;;;14.40;99.90;;;13.85;100.00;101493.81;4152389;28;20029;-73
2023/08/16 02:48:25;;;;;;;4.43;2.50;;;14.40;99.90;;;13.85;100.00;101481.38;4152620;28;20029;-73
2023/08/16 02:50:26;;;;;;;4.63;2.38;;;14.40;99.90;;;13.87;100.00;101486.50;4152526;28;20080;-73
2023/08/16 02:52:27;;;;;;;5.50;2.30;;;14.50;99.90;;;13.90;100.00;101488.84;4152468;28;20040;-72
2023/08/16 02:54:28;;;;;;;6.53;3.00;;;14.50;99.90;;;13.89;100.00;101481.06;4150644;28;20033;-73
2023/08/16 02:56:29;;;;;;;3.60;2.00;;;14.50;99.90;;;13.94;100.00;101479.59;4138203;28;20026;-72
2023/08/16 02:58:30;;;;;;;4.28;2.30;;;14.50;99.90;;;13.97;100.00;101479.28;4152652;28;20076;-72
2023/08/16 03:00:31;;;;;;;5.50;2.42;;;14.50;99.90;;;13.99;100.00;101471.13;4151529;28;20497;-73
2023/08/16 03:02:34;;;;;;;6.43;3.10;;;14.60;99.90;;;14.04;100.00;101480.28;4152388;28;20129;-73
2023/08/16 03:04:39;;;;;;;5.85;2.90;;;14.60;99.90;;;14.07;100.00;101477.31;4151400;28;20580;-73
2023/08/16 03:06:39;;;;;;;7.25;3.33;;;14.60;99.90;;;14.09;100.00;101472.69;4150927;28;20088;-73
2023/08/16 03:08:40;;;;;;;5.45;3.35;;;14.60;99.90;;;14.07;100.00;101469.34;4152307;28;20033;-73
2023/08/16 03:10:41;;;;;;;6.57;2.78;;;14.60;99.90;;;14.06;100.00;101470.34;4152289;28;20080;-73
2023/08/16 03:12:42;;;;;;;6.35;2.50;;;14.60;99.90;;;14.00;100.00;101467.50;4152414;28;20034;-73
2023/08/16 03:14:43;;;;;;;4.45;2.60;;;14.60;99.90;;;14.01;100.00;101474.50;4151029;28;20022;-73
2023/08/16 03:16:44;;;;;;;5.80;2.80;;;14.60;99.90;;;14.00;100.00;101483.44;4152334;28;20029;-73
2023/08/16 03:18:45;;;;;;;4.22;2.70;;;14.60;99.90;;;13.96;100.00;101480.25;4152203;28;20097;-73
2023/08/16 03:20:45;;;;;;;7.28;2.50;;;14.60;99.90;;;13.98;100.00;101483.56;4151860;28;20030;-73
2023/08/16 03:22:46;;;;;;;7.40;2.75;;;14.60;99.90;;;13.97;100.00;101483.75;4149517;28;20397;-73
2023/08/16 03:24:49;;;;;;;6.95;2.58;;;14.50;99.90;;;13.94;100.00;101478.75;4150948;28;20036;-73
2023/08/16 03:26:50;;;;;;;4.15;2.30;;;14.50;99.90;;;13.95;100.00;101485.72;4152342;28;20083;-73
2023/08/16 03:28:51;;;;;;;5.68;2.80;;;14.50;99.90;;;13.94;100.00;101495.50;4152003;28;20026;-73
2023/08/16 03:30:52;;;;;;;4.95;2.65;;;14.50;99.90;;;13.94;100.00;101479.59;4152182;28;20029;-73
2023/08/16 03:32:53;;;;;;;6.28;2.50;;;14.50;99.90;;;13.94;100.00;101486.72;4152188;28;20042;-73
2023/08/16 03:34:54;;;;;;;3.97;2.35;;;14.50;99.90;;;13.97;100.00;101484.59;4150702;28;20482;-73
2023/08/16 03:36:55;;;;;;;6.50;2.70;;;14.60;99.90;;;13.99;100.00;101487.88;4151405;28;20104;-73
2023/08/16 03:38:56;;;;;;;6.10;2.75;;;14.60;99.90;;;14.01;100.00;101475.28;4152172;28;20033;-73
2023/08/16 03:40:56;;;;;;;5.38;3.10;;;14.60;99.90;;;14.04;100.00;101480.28;4152042;28;20037;-73
2023/08/16 03:42:57;;;;;;;4.60;2.83;;;14.60;99.90;;;14.06;100.00;101475.66;4151997;28;20397;-73
2023/08/16 03:44:58;;;;;;;6.80;3.00;;;14.60;99.90;;;14.05;100.00;101473.16;4150833;28;20022;-73
2023/08/16 03:46:59;;;;;;;6.53;2.78;;;14.70;99.90;;;14.06;100.00;101469.53;4152221;28;20022;-73
2023/08/16 03:49:00;;;;;;;5.25;2.33;;;14.70;99.90;;;14.10;100.00;101478.78;4150904;28;20054;-73
2023/08/16 03:51:01;;;;;;;5.75;2.33;;;14.70;99.90;;;14.13;100.00;101478.47;4151902;28;20044;-73
2023/08/16 03:53:02;;;;;;;5.60;2.90;;;14.70;99.90;;;14.13;100.00;101474.00;4151909;28;20026;-73
2023/08/16 03:55:03;;;;;;;4.40;2.53;;;14.70;99.90;;;14.15;100.00;101482.66;4150947;28;20034;-73
2023/08/16 03:57:04;;;;;;;4.93;3.00;;;14.70;99.90;;;14.14;100.00;101469.53;4152308;28;20040;-73
2023/08/16 03:59:05;;;;;;;5.60;2.67;;;14.70;99.90;;;14.13;100.00;101471.34;4150641;28;20062;-73
2023/08/16 04:01:06;;;;;;;5.30;2.90;;;14.70;99.90;;;14.09;100.00;101467.38;4151512;28;20025;-73
2023/08/16 04:03:07;;;;;;;3.55;2.60;;;14.70;99.90;;;14.08;100.00;101476.31;4151955;28;20026;-73
2023/08/16 04:05:11;;;;;;;5.13;2.95;;;14.70;99.90;;;14.06;100.00;101480.97;4151933;28;20501;-73
2023/08/16 04:07:12;;;;;;;5.97;3.53;;;14.70;99.90;;;13.99;100.00;101463.19;4151768;28;20083;-73
2023/08/16 04:09:14;;;;;;;9.57;4.25;;;14.60;99.90;;;14.00;100.00;101480.78;4150800;28;20018;-73
2023/08/16 04:11:15;;;;;;;11.73;4.95;;;14.60;99.90;;;13.94;100.00;101478.75;4153123;28;20056;-73
2023/08/16 04:13:16;;;;;;;7.20;3.78;;;14.60;99.90;;;13.92;100.00;101476.25;4154926;28;20026;-73
2023/08/16 04:15:17;;;;;;;8.38;5.13;;;14.50;99.90;;;13.90;100.00;101477.41;4153600;28;20378;-73
2023/08/16 04:17:18;;;;;;;7.88;4.72;;;14.50;99.90;;;13.86;100.00;101476.88;4126267;28;20067;-73
2023/08/16 04:19:19;;;;;;;8.20;4.50;;;14.50;99.90;;;13.83;100.00;101482.50;4154783;28;20037;-73
2023/08/16 04:21:20;;;;;;;9.65;4.18;;;14.40;99.90;;;13.79;100.00;101484.66;4154439;28;20049;-73
2023/08/16 04:23:22;;;;;;;8.88;4.03;;;14.40;99.90;;;13.79;100.00;101486.50;4153561;28;20033;-73
2023/08/16 04:25:23;;;;;;;9.27;4.93;;;14.40;99.90;;;13.73;100.00;101477.34;4154519;28;20024;-72
2023/08/16 04:27:24;;;;;;;8.35;4.50;;;14.40;99.90;;;13.71;100.00;101481.13;4153523;28;20026;-73
2023/08/16 04:29:25;;;;;;;8.70;5.07;;;14.30;99.90;;;13.70;100.00;101488.28;4153592;28;20045;-73
2023/08/16 04:31:26;;;;;;;5.75;4.13;;;14.30;99.90;;;13.68;100.00;101492.03;4154560;28;20034;-73
2023/08/16 04:33:26;;;;;;;6.30;4.32;;;14.30;99.90;;;13.69;100.00;101485.75;4154403;28;20030;-73
2023/08/16 04:35:27;;;;;;;7.10;4.00;;;14.30;99.90;;;13.65;100.00;101487.88;4152437;28;20061;-73
2023/08/16 04:37:28;;;;;;;9.48;4.03;;;14.30;99.90;;;13.68;100.00;101473.47;4153150;28;20033;-73
2023/08/16 04:39:29;;;;;;;7.97;3.45;;;14.30;99.90;;;13.66;100.00;101472.81;4154365;28;20037;-72
2023/08/16 04:41:30;;;;;;;8.35;3.72;;;14.20;99.90;;;13.57;100.00;101461.34;4152941;28;20030;-73
2023/08/16 04:43:31;;;;;;;6.43;3.25;;;14.30;99.90;;;13.65;100.00;101479.94;4154401;28;20386;-72
2023/08/16 04:45:32;;;;;;;9.30;3.92;;;14.20;99.90;;;13.62;100.00;101474.94;4154347;28;20018;-72
2023/08/16 04:47:32;;;;;;;10.88;4.22;;;14.20;99.90;;;13.61;100.00;101472.47;4154361;28;20033;-73
2023/08/16 04:49:33;;;;;;;5.10;2.90;;;14.20;99.90;;;13.59;100.00;101469.97;4154293;28;20030;-72
2023/08/16 04:51:34;;;;;;;8.63;3.72;;;14.20;99.90;;;13.58;100.00;101464.84;4153136;28;20026;-72
2023/08/16 04:53:35;;;;;;;7.43;3.83;;;14.20;99.90;;;13.59;100.00;101467.31;4153114;28;20029;-73
2023/08/16 04:55:36;;;;;;;9.35;3.80;;;14.20;99.90;;;13.60;100.00;101465.50;4154180;28;20038;-73
2023/08/16 04:57:37;;;;;;;7.88;3.60;;;14.10;99.90;;;13.58;100.00;101462.19;4154132;28;20168;-73
2023/08/16 04:59:38;;;;;;;6.53;3.40;;;14.20;99.90;;;13.55;100.00;101452.72;4152996;28;20038;-73
2023/08/16 05:01:38;;;;;;;5.72;4.07;;;14.10;99.90;;;13.58;100.00;101460.38;4154072;28;20026;-73
2023/08/16 05:03:39;;;;;;;9.05;3.58;;;14.10;99.90;;;13.56;100.00;101458.88;4147403;28;20027;-73
2023/08/16 05:05:40;;;;;;;7.47;3.03;;;14.20;99.90;;;13.58;100.00;101464.84;4150335;28;20390;-73
2023/08/16 05:07:41;;;;;;;4.85;3.08;;;14.20;99.90;;;13.56;100.00;101466.81;4152468;28;20038;-73
2023/08/16 05:09:42;;;;;;;9.77;4.40;;;14.10;99.90;;;13.58;100.00;101467.47;4144456;28;20025;-73
2023/08/16 05:11:43;;;;;;;8.48;3.67;;;14.10;99.90;;;13.56;100.00;101464.16;4153895;28;20029;-72
2023/08/16 05:13:43;;;;;;;7.38;3.70;;;14.20;99.90;;;13.58;100.00;101459.53;4146976;28;20077;-74
2023/08/16 05:15:45;;;;;;;7.10;3.45;;;14.20;99.90;;;13.57;100.00;101466.66;4153045;28;20038;-73
2023/08/16 05:17:46;;;;;;;8.00;3.63;;;14.20;99.90;;;13.59;100.00;101467.31;4120236;28;20030;-73
2023/08/16 05:19:46;;;;;;;4.35;3.50;;;14.20;99.90;;;13.60;100.00;101465.50;4153912;28;20038;-73
2023/08/16 05:21:47;;;;;;;7.35;3.70;;;14.10;99.90;;;13.59;100.00;101467.31;4153813;28;20033;-73
2023/08/16 05:23:48;;;;;;;7.40;3.00;;;14.20;99.90;;;13.59;100.00;101466.50;4147469;28;20095;-73
2023/08/16 05:25:49;;;;;;;9.20;3.15;;;14.20;99.90;;;13.57;100.00;101456.03;4153820;28;20054;-73
2023/08/16 05:27:50;;;;;;;8.20;4.03;;;14.20;99.90;;;13.58;100.00;101462.19;4152570;28;20033;-73
2023/08/16 05:29:51;;;;;;;6.28;2.92;;;14.20;99.90;;;13.62;100.00;101463.53;4152466;28;20405;-73
2023/08/16 05:31:52;;;;;;;4.47;3.10;;;14.20;99.90;;;13.63;100.00;101466.03;4152591;28;20026;-73
2023/08/16 05:33:52;;;;;;;5.75;3.58;;;14.20;99.90;;;13.63;100.00;101454.56;4141812;28;20021;-73
2023/08/16 05:35:53;;;;;;;5.63;3.17;;;14.20;99.90;;;13.63;100.00;101465.19;4151687;28;20413;-73
2023/08/16 05:37:54;;;;;;;7.97;3.20;;;14.20;99.90;;;13.66;100.00;101467.50;4152545;28;20037;-73
2023/08/16 05:39:55;;;;;;;6.57;3.17;;;14.20;99.90;;;13.70;100.00;101471.53;4153515;28;20029;-73
2023/08/16 05:41:56;;;;;;;6.07;2.97;;;14.20;99.90;;;13.73;100.00;101468.56;4152189;28;20018;-72
2023/08/16 05:43:57;;;;;;;8.48;4.00;;;14.30;99.90;;;13.74;100.00;101463.09;4153400;28;20481;-73
2023/08/16 05:45:58;;;;;;;5.70;2.88;;;14.30;99.90;;;13.74;100.00;101457.78;4153546;28;20375;-73
2023/08/16 05:47:58;;;;;;;6.57;3.40;;;14.30;99.90;;;13.81;100.00;101468.59;4151714;28;20017;-73
2023/08/16 05:50:00;;;;;;;7.82;4.03;;;14.30;99.90;;;13.83;100.00;101474.56;4152080;28;20026;-72
2023/08/16 05:52:01;;;;;;;5.97;2.80;;;14.40;99.90;;;13.83;100.00;101471.91;4153163;28;20068;-73
2023/08/16 05:54:03;;;;;;;7.90;3.65;;;14.40;99.90;;;13.84;100.00;101469.09;4152086;28;20029;-72
2023/08/16 05:56:03;;;;;;;4.88;3.33;;;14.40;99.90;;;13.82;100.00;101470.25;4153090;28;20037;-73
2023/08/16 05:58:04;;;;;;;6.07;2.88;;;14.40;99.90;;;13.80;100.00;101470.41;4153612;28;20018;-73
2023/08/16 06:00:06;;;;;;;6.65;3.17;;;14.40;99.90;;;13.79;100.00;101465.28;4152114;28;20037;-73
2023/08/16 06:02:07;;;;;;;6.35;3.47;;;14.40;99.90;;;13.76;100.00;101462.94;4153281;28;20022;-73
2023/08/16 06:04:08;;;;;;;8.68;3.03;;;14.40;99.90;;;13.76;100.00;101477.03;4151992;28;20503;-73
2023/08/16 06:06:09;;;;;;;6.38;2.60;;;14.30;99.90;;;13.73;100.00;101471.22;4148240;28;20015;-73
2023/08/16 06:08:10;;;;;;;7.32;3.15;;;14.30;99.90;;;13.76;100.00;101477.03;4142647;28;20041;-73
2023/08/16 06:10:11;;;;;;;5.05;3.05;;;14.40;99.90;;;13.76;100.00;101477.03;4153000;28;20397;-73
2023/08/16 06:12:12;;;;;;;9.25;3.30;;;14.40;99.90;;;13.77;100.00;101477.84;4151830;28;20033;-73
2023/08/16 06:14:13;;;;;;;5.07;3.10;;;14.40;99.90;;;13.78;100.00;101479.50;4147848;28;20034;-72
2023/08/16 06:16:15;;;;;;;6.32;3.13;;;14.40;99.90;;;13.84;100.00;101473.56;4153053;28;20406;-73
2023/08/16 06:18:16;;;;;;;7.10;2.70;;;14.40;99.90;;;13.85;100.00;101467.28;4153200;28;20022;-73
2023/08/16 06:20:17;;;;;;;5.65;2.53;;;14.40;99.90;;;13.92;100.00;101475.44;4151697;28;20521;-73
2023/08/16 06:22:18;;;;;;;7.32;2.97;;;14.50;99.90;;;13.90;100.00;101467.63;4152833;28;20160;-73
2023/08/16 06:24:19;;;;;;;6.10;3.60;;;14.50;99.90;;;13.99;100.00;101476.44;4151815;28;20033;-73
2023/08/16 06:26:20;;;;;;;5.15;2.58;;;14.60;99.90;;;14.04;100.00;101467.00;4151673;28;20022;-73
2023/08/16 06:28:21;;;;;;;5.57;2.85;;;14.60;99.90;;;14.10;100.00;101474.31;4151706;28;20030;-73
2023/08/16 06:30:22;;;;;;;8.32;3.03;;;14.60;99.90;;;14.16;100.00;101470.19;4151624;28;20118;-73
2023/08/16 06:32:23;;;;;;;4.28;2.50;;;14.70;99.90;;;14.24;100.00;101478.19;4151556;28;20030;-73
2023/08/16 06:34:24;;;;;;;3.90;2.20;;;14.80;99.90;;;14.27;100.00;101478.72;4150526;28;20544;-73
2023/08/16 06:36:25;;;;;;;4.05;2.65;;;14.80;99.90;;;14.31;100.00;101482.69;4150134;28;20042;-73
2023/08/16 06:38:25;;;;;;;4.30;2.47;;;14.90;99.90;;;14.35;100.00;101481.41;4152575;28;20069;-73
2023/08/16 06:40:27;;;;;;;7.63;2.65;;;14.90;99.90;;;14.36;100.00;101480.44;4152604;28;20564;-73
2023/08/16 06:42:28;;;;;;;7.05;2.88;;;15.00;99.90;;;14.39;100.00;101477.41;4151685;28;20054;-73
2023/08/16 06:44:28;;;;;;;6.47;2.10;;;15.00;99.90;;;14.48;100.00;101477.47;4140893;28;20026;-72
2023/08/16 06:46:29;;;;;;;6.15;2.70;;;15.10;99.90;;;14.55;100.00;101486.41;4148843;28;20033;-73
2023/08/16 06:48:31;;;;;;;5.00;2.60;;;15.10;99.90;;;14.57;100.00;101484.44;4152669;28;20370;-73
2023/08/16 06:50:32;;;;;;;7.35;2.95;;;15.20;99.90;;;14.66;100.00;101488.78;4151234;28;20037;-73
2023/08/16 06:52:33;;;;;;;5.20;2.08;;;15.20;99.90;;;14.73;100.00;101492.41;4151513;28;20093;-73
2023/08/16 06:54:34;;;;;;;5.05;2.90;;;15.30;99.90;;;14.84;100.00;101484.13;4151233;28;20041;-73
2023/08/16 06:56:35;;;;;;;7.57;2.70;;;15.30;99.90;;;14.94;100.00;101484.78;4148013;28;20081;-73
2023/08/16 06:58:36;;;;;;;3.67;2.67;;;15.40;99.90;;;15.04;100.00;101496.09;4141910;28;20034;-73
2023/08/16 07:00:37;;;;;;;4.97;2.42;;;15.50;99.90;;;15.14;100.00;101491.41;4150550;28;20038;-73
2023/08/16 07:02:38;;;;;;;4.10;2.10;;;15.60;99.90;;;15.36;100.00;101503.19;4140843;28;20022;-73
2023/08/16 07:04:38;;;;;;;2.40;1.77;;;15.70;99.90;;;15.56;100.00;101493.88;4142661;28;20030;-72
2023/08/16 07:06:39;;;;;;;5.47;2.20;;;15.90;99.90;;;15.68;100.00;101489.84;4152256;28;20406;-72
2023/08/16 07:08:40;;;;;;;4.85;2.58;;;16.00;99.90;;;15.80;100.00;101485.81;4152360;28;20084;-72
2023/08/16 07:10:44;;;;;;;3.08;1.60;;;16.20;99.90;;;16.00;100.00;101483.59;4150805;28;20034;-72
2023/08/16 07:12:46;;;;;;;6.03;2.10;;;16.30;99.90;;;16.16;100.00;101494.16;4167625;28;20025;-72
2023/08/16 07:14:49;;;;;;;3.22;1.70;;;16.40;99.90;;;16.32;100.00;101490.59;4160584;28;20448;-73
2023/08/16 07:16:51;;;;;;;4.60;1.90;;;16.60;99.90;;;16.41;100.00;101485.03;4146326;28;20025;-72
2023/08/16 07:18:52;;;;;;;4.60;2.42;;;16.70;99.90;;;16.56;100.00;101483.31;4151003;28;20026;-73
2023/08/16 07:20:53;;;;;;;2.25;1.50;;;16.90;99.90;;;16.73;100.00;101486.69;4150786;28;20080;-73
2023/08/16 07:22:53;;;;;;;2.42;1.48;;;17.00;99.90;;;16.75;100.00;101481.19;4151134;28;20022;-73
2023/08/16 07:24:54;;;;;;;4.63;1.75;;;17.10;99.90;;;16.78;100.00;101478.16;4164025;28;20087;-73
2023/08/16 07:26:56;;;;;;;4.05;1.40;;;17.20;99.90;;;16.74;100.00;101482.19;4149922;28;20034;-73
2023/08/16 07:28:57;;;;;;;4.40;1.98;;;17.20;99.90;;;16.76;100.00;101486.31;4150952;28;20113;-72
2023/08/16 07:30:58;;;;;;;3.60;1.42;;;17.20;99.90;;;16.77;100.00;101485.31;4150953;28;20560;-73
2023/08/16 07:32:59;;;;;;;4.03;1.60;;;17.30;99.90;;;16.79;100.00;101477.97;4144824;28;20033;-73
2023/08/16 07:35:00;;;;;;;3.10;1.50;;;17.30;99.90;;;16.80;100.00;101484.13;4149506;28;21303;-72
2023/08/16 07:37:01;;;;;;;5.50;3.38;;;17.40;99.90;;;16.71;100.00;101475.38;4150895;28;20096;-73
2023/08/16 07:39:02;;;;;;;3.30;1.58;;;17.40;99.90;;;16.73;100.00;101475.19;4152132;28;20030;-73
2023/08/16 07:41:03;;;;;;;4.60;1.23;;;17.40;99.90;;;16.80;100.00;101487.63;4150564;28;20452;-73
2023/08/16 07:43:04;;;;;;;3.03;1.77;;;17.40;99.90;;;16.78;100.00;101478.16;4150876;28;20030;-72
2023/08/16 07:45:05;;;;;;;4.40;1.75;;;17.50;99.90;;;16.86;100.00;101488.75;4138864;28;20108;-74
2023/08/16 07:47:06;;;;;;;2.92;1.65;;;17.50;99.90;;;16.84;100.00;101488.13;4154582;28;20037;-74
2023/08/16 07:49:07;;;;;;;4.03;1.30;;;17.50;99.90;;;16.81;100.00;101480.47;4155248;28;20037;-73
2023/08/16 07:51:08;;;;;;;3.90;1.65;;;17.40;99.90;;;16.83;100.00;101479.28;4153805;28;20420;-74
2023/08/16 07:53:09;;;;;;;1.88;1.13;;;17.50;99.90;;;16.93;100.00;101487.03;4155258;28;20033;-73
2023/08/16 07:55:10;;;;;;;2.85;1.75;;;17.50;99.90;;;16.97;100.00;101478.50;4155066;28;20088;-73
2023/08/16 07:57:10;;;;;;;3.03;1.20;;;17.50;99.90;;;17.04;100.00;101479.44;4154034;28;20072;-73
2023/08/16 07:59:11;;;;;;;3.97;1.30;;;17.60;99.90;;;17.11;100.00;101474.22;4155312;28;20026;-74
2023/08/16 08:01:12;;;;;;;3.35;1.88;;;17.70;99.90;;;17.17;100.00;101471.63;4153685;28;20080;-74
2023/08/16 08:03:13;;;;;;;4.82;1.50;;;17.80;99.90;;;17.30;100.00;101478.19;4170421;28;20029;-73
2023/08/16 08:05:15;;;;;;;3.33;1.00;;;17.90;99.90;;;17.34;100.00;101477.66;4153756;28;20050;-73
2023/08/16 08:07:15;;;;;;;2.72;1.15;;;17.90;99.90;;;17.46;100.00;101476.19;4154910;28;20029;-73
2023/08/16 08:09:16;;;;;;;3.33;1.48;;;18.00;99.90;;;17.51;100.00;101475.63;4153800;28;20072;-73
2023/08/16 08:11:17;;;;;;;3.00;1.25;;;18.10;99.90;;;17.59;100.00;101488.94;4153758;28;20034;-73
2023/08/16 08:13:18;;;;;;;5.72;1.75;;;18.20;99.90;;;17.68;100.00;101471.84;4155085;28;20409;-73
2023/08/16 08:15:19;;;;;;;2.92;0.93;;;18.20;99.90;;;17.76;100.00;101484.25;4154914;28;20084;-73
2023/08/16 08:17:20;;;;;;;3.83;1.23;;;18.20;99.90;;;17.79;100.00;101479.38;4153407;28;20030;-73
2023/08/16 08:19:21;;;;;;;3.20;1.02;;;18.30;99.90;;;17.89;100.00;101473.75;4154836;28;20478;-73